Time;durP1;ratioP1;P1;durP2;ratioP2;P2;SDS_P1;SDS_P2;PMS_P1;PMS_P2;Temp;Humidity;BMP_temperature;BMP_pressure;BME280_temperature;BME280_humidity;BME280_pressure;Samples;Min_cycle;Max_cycle;Signal;HPM_P1;HPM_P2
2021/06/09 00:00:51;;;;;;;0.10;0.10;;;;;;;;;;5087453;28;20040;-79
2021/06/09 00:03:18;;;;;;;0.10;0.10;;;;;;;;;;5081139;28;20110;-79
2021/06/09 00:05:44;;;;;;;0.10;0.10;;;;;;;;;;5087658;28;20365;-79
2021/06/09 00:08:10;;;;;;;0.10;0.10;;;;;;;;;;5082288;28;20535;-79
2021/06/09 00:10:36;;;;;;;0.10;0.10;;;;;;;;;;5087272;28;20024;-79
2021/06/09 00:13:02;;;;;;;0.10;0.10;;;;;;;;;;5081895;28;20020;-79
2021/06/09 00:15:28;;;;;;;0.10;0.10;;;;;;;;;;5087453;28;20025;-79
2021/06/09 00:17:54;;;;;;;0.10;0.10;;;;;;;;;;5081776;28;20097;-79
2021/06/09 00:20:22;;;;;;;0.10;0.10;;;;;;;;;;5087643;28;20032;-79
2021/06/09 00:22:48;;;;;;;0.10;0.10;;;;;;;;;;5081733;28;20562;-79
2021/06/09 00:25:18;;;;;;;0.10;0.10;;;;;;;;;;5088173;28;20035;-79
2021/06/09 00:27:48;;;;;;;0.10;0.10;;;;;;;;;;5074880;28;20020;-79
2021/06/09 00:30:22;;;;;;;0.10;0.10;;;;;;;;;;5071810;28;20049;-79
2021/06/09 00:32:48;;;;;;;0.10;0.10;;;;;;;;;;5075450;28;20033;-79
2021/06/09 00:35:14;;;;;;;0.10;0.10;;;;;;;;;;5071565;28;20201;-79
2021/06/09 00:37:40;;;;;;;0.10;0.10;;;;;;;;;;5079927;28;20020;-79
2021/06/09 00:40:08;;;;;;;0.10;0.10;;;;;;;;;;5087621;28;20530;-79
2021/06/09 00:42:34;;;;;;;0.10;0.10;;;;;;;;;;5080233;28;20618;-79
2021/06/09 00:45:00;;;;;;;0.10;0.10;;;;;;;;;;5089246;28;20111;-78
2021/06/09 00:47:26;;;;;;;0.10;0.10;;;;;;;;;;5078039;28;20024;-79
2021/06/09 00:49:53;;;;;;;0.10;0.10;;;;;;;;;;5088230;28;20051;-79
2021/06/09 00:52:29;;;;;;;0.10;0.10;;;;;;;;;;5079125;28;20382;-79
2021/06/09 00:54:55;;;;;;;0.10;0.10;;;;;;;;;;5089418;28;20016;-79
2021/06/09 00:57:22;;;;;;;0.10;0.10;;;;;;;;;;5080634;28;20036;-79
2021/06/09 00:59:48;;;;;;;;;;;;;;;;;;5094128;28;20028;-79
2021/06/09 01:02:14;;;;;;;0.13;0.13;;;;;;;;;;5085250;28;19935;-79
2021/06/09 01:04:40;;;;;;;0.10;0.10;;;;;;;;;;5073771;28;20021;-79
2021/06/09 01:07:09;;;;;;;0.20;0.20;;;;;;;;;;5083715;28;20035;-79
2021/06/09 01:09:35;;;;;;;0.10;0.10;;;;;;;;;;5073936;28;20028;-79
2021/06/09 01:12:01;;;;;;;0.10;0.10;;;;;;;;;;5079987;28;20024;-79
2021/06/09 01:14:27;;;;;;;0.15;0.15;;;;;;;;;;5094216;28;20028;-78
2021/06/09 01:16:53;;;;;;;0.10;0.10;;;;;;;;;;5081692;28;20031;-79
2021/06/09 01:19:20;;;;;;;0.33;0.33;;;;;;;;;;5073560;28;20059;-79
2021/06/09 01:21:47;;;;;;;0.10;0.10;;;;;;;;;;5078948;28;20548;-78
2021/06/09 01:24:13;;;;;;;0.10;0.10;;;;;;;;;;5091467;28;20028;-78
2021/06/09 01:26:39;;;;;;;0.10;0.10;;;;;;;;;;5083393;28;20380;-79
2021/06/09 01:29:05;;;;;;;0.10;0.10;;;;;;;;;;5091516;28;20026;-78
2021/06/09 01:31:32;;;;;;;0.10;0.10;;;;;;;;;;5087077;28;20024;-78
2021/06/09 01:34:05;;;;;;;0.10;0.10;;;;;;;;;;5075997;28;20383;-78
2021/06/09 01:36:35;;;;;;;0.10;0.10;;;;;;;;;;5078936;28;20017;-78
2021/06/09 01:39:06;;;;;;;0.40;0.40;;;;;;;;;;5090891;28;20050;-78
2021/06/09 01:41:32;;;;;;;0.10;0.10;;;;;;;;;;5082857;28;20025;-78
2021/06/09 01:43:58;;;;;;;0.13;0.13;;;;;;;;;;5090502;28;20024;-79
2021/06/09 01:46:24;;;;;;;0.10;0.10;;;;;;;;;;5085627;28;20021;-79
2021/06/09 01:48:50;;;;;;;0.10;0.10;;;;;;;;;;5087641;28;20032;-79
2021/06/09 01:51:17;;;;;;;0.10;0.10;;;;;;;;;;5085155;28;20032;-79
2021/06/09 01:53:43;;;;;;;0.10;0.10;;;;;;;;;;5078078;28;20050;-79
2021/06/09 01:56:09;;;;;;;0.10;0.10;;;;;;;;;;5076963;28;20103;-80
2021/06/09 01:58:35;;;;;;;0.10;0.10;;;;;;;;;;5087113;28;20024;-79
2021/06/09 02:01:01;;;;;;;0.10;0.10;;;;;;;;;;5087596;28;20039;-79
2021/06/09 02:03:27;;;;;;;2.20;0.60;;;;;;;;;;5085679;28;20025;-78
2021/06/09 02:05:54;;;;;;;0.30;0.30;;;;;;;;;;5085038;28;20082;-78
2021/06/09 02:08:20;;;;;;;0.10;0.10;;;;;;;;;;5080963;28;20028;-78
2021/06/09 02:10:46;;;;;;;0.10;0.10;;;;;;;;;;5065684;28;20060;-79
2021/06/09 02:13:14;;;;;;;0.10;0.10;;;;;;;;;;5069485;28;20119;-79
2021/06/09 02:15:41;;;;;;;0.10;0.10;;;;;;;;;;5073792;28;20024;-79
2021/06/09 02:18:09;;;;;;;0.10;0.10;;;;;;;;;;5083735;28;20374;-79
2021/06/09 02:20:36;;;;;;;0.10;0.10;;;;;;;;;;5089222;28;20533;-79
2021/06/09 02:23:02;;;;;;;0.10;0.10;;;;;;;;;;5083421;28;20032;-79
2021/06/09 02:25:28;;;;;;;1.13;1.10;;;;;;;;;;5089164;28;20020;-79
2021/06/09 02:27:54;;;;;;;0.10;0.10;;;;;;;;;;5083495;28;20175;-79
2021/06/09 02:30:21;;;;;;;0.10;0.10;;;;;;;;;;5089030;28;20081;-78
2021/06/09 02:32:47;;;;;;;0.10;0.10;;;;;;;;;;5083156;28;20047;-79
2021/06/09 02:35:17;;;;;;;0.10;0.10;;;;;;;;;;5089807;28;20479;-79
2021/06/09 02:37:45;;;;;;;0.10;0.10;;;;;;;;;;5081885;28;20066;-80
2021/06/09 02:40:11;;;;;;;0.10;0.10;;;;;;;;;;5088667;28;20044;-80
2021/06/09 02:42:37;;;;;;;0.10;0.10;;;;;;;;;;5082063;28;20016;-78
2021/06/09 02:45:08;;;;;;;0.10;0.10;;;;;;;;;;5089304;28;20547;-78
2021/06/09 02:47:35;;;;;;;0.10;0.10;;;;;;;;;;5082146;28;20043;-79
2021/06/09 02:50:01;;;;;;;0.10;0.10;;;;;;;;;;5072389;28;20044;-78
2021/06/09 02:52:45;;;;;;;0.10;0.10;;;;;;;;;;5080896;28;20034;-79
2021/06/09 02:55:12;;;;;;;0.10;0.10;;;;;;;;;;5088078;28;20352;-78
2021/06/09 02:57:40;;;;;;;0.50;0.50;;;;;;;;;;5080780;28;20542;-78
2021/06/09 03:00:12;;;;;;;0.10;0.10;;;;;;;;;;5089963;28;20446;-79
2021/06/09 03:02:57;;;;;;;0.10;0.10;;;;;;;;;;5081980;28;20027;-78
2021/06/09 03:05:40;;;;;;;0.10;0.10;;;;;;;;;;5088416;28;20062;-78
2021/06/09 03:08:21;;;;;;;0.10;0.10;;;;;;;;;;5081432;28;20097;-78
2021/06/09 03:11:01;;;;;;;0.20;0.20;;;;;;;;;;5088305;28;20016;-78
2021/06/09 03:16:44;;;;;;;0.10;0.10;;;;;;;;;;5079224;28;20017;-78
2021/06/09 03:19:13;;;;;;;0.10;0.10;;;;;;;;;;5066215;28;20068;-79
2021/06/09 03:21:53;;;;;;;0.10;0.10;;;;;;;;;;5075409;28;20027;-78
2021/06/09 03:24:27;;;;;;;0.10;0.10;;;;;;;;;;5070113;28;20016;-78
2021/06/09 03:26:55;;;;;;;0.10;0.10;;;;;;;;;;5075347;28;20120;-78
2021/06/09 03:29:24;;;;;;;0.10;0.10;;;;;;;;;;5051504;28;20096;-78
2021/06/09 03:32:10;;;;;;;0.10;0.10;;;;;;;;;;5073651;28;20112;-78
2021/06/09 03:35:02;;;;;;;0.10;0.10;;;;;;;;;;5050991;28;20083;-78
2021/06/09 03:37:31;;;;;;;0.10;0.10;;;;;;;;;;5047932;28;20097;-78
2021/06/09 03:39:58;;;;;;;0.10;0.10;;;;;;;;;;5090294;28;20062;-78
2021/06/09 03:42:26;;;;;;;0.10;0.10;;;;;;;;;;5082003;28;20021;-78
2021/06/09 03:44:54;;;;;;;0.10;0.10;;;;;;;;;;5071007;28;20040;-79
2021/06/09 03:47:20;;;;;;;0.10;0.10;;;;;;;;;;5080751;28;20024;-78
2021/06/09 03:49:47;;;;;;;0.10;0.10;;;;;;;;;;5070850;28;20545;-79
2021/06/09 03:52:14;;;;;;;0.10;0.10;;;;;;;;;;5098290;28;20471;-79
2021/06/09 03:54:43;;;;;;;0.10;0.10;;;;;;;;;;5071131;28;20024;-79
2021/06/09 03:57:09;;;;;;;0.10;0.10;;;;;;;;;;5080775;28;20020;-79
2021/06/09 03:59:36;;;;;;;0.10;0.10;;;;;;;;;;5069642;28;20025;-79
2021/06/09 04:02:06;;;;;;;0.10;0.10;;;;;;;;;;5075845;28;20161;-79
2021/06/09 04:04:32;;;;;;;0.10;0.10;;;;;;;;;;5091254;28;20020;-79
2021/06/09 04:06:59;;;;;;;0.10;0.10;;;;;;;;;;5074412;28;20029;-78
2021/06/09 04:09:25;;;;;;;0.10;0.10;;;;;;;;;;5089945;28;20020;-79
2021/06/09 04:11:54;;;;;;;0.45;0.45;;;;;;;;;;5076608;28;20021;-78
2021/06/09 04:14:22;;;;;;;0.10;0.10;;;;;;;;;;5056084;28;20052;-78
2021/06/09 04:16:49;;;;;;;0.57;0.43;;;;;;;;;;5073051;28;20029;-79
2021/06/09 04:19:15;;;;;;;0.10;0.10;;;;;;;;;;5090102;28;20028;-79
2021/06/09 04:21:42;;;;;;;0.10;0.10;;;;;;;;;;5080791;28;20035;-79
2021/06/09 04:24:08;;;;;;;6.72;5.70;;;;;;;;;;5089319;28;20023;-79
2021/06/09 04:26:35;;;;;;;0.43;0.43;;;;;;;;;;5081503;28;20442;-79
2021/06/09 04:29:02;;;;;;;0.20;0.20;;;;;;;;;;5086945;28;20112;-78
2021/06/09 04:31:28;;;;;;;;;;;;;;;;;;5082510;28;20074;-81
2021/06/09 04:33:55;;;;;;;0.10;0.10;;;;;;;;;;5091406;28;19904;-82
2021/06/09 04:36:22;;;;;;;0.10;0.10;;;;;;;;;;5087393;28;20029;-84
2021/06/09 04:38:48;;;;;;;1.90;1.80;;;;;;;;;;5089103;28;20058;-82
2021/06/09 04:41:14;;;;;;;1.15;0.88;;;;;;;;;;5090331;28;20039;-83
2021/06/09 04:43:40;;;;;;;0.10;0.10;;;;;;;;;;5078927;28;20025;-83
2021/06/09 04:46:07;;;;;;;0.10;0.10;;;;;;;;;;5077717;28;20024;-83
2021/06/09 04:48:33;;;;;;;0.10;0.10;;;;;;;;;;5081306;28;20119;-84
2021/06/09 04:50:59;;;;;;;18.75;4.68;;;;;;;;;;5079957;28;20044;-83
2021/06/09 04:53:25;;;;;;;0.32;0.32;;;;;;;;;;5087227;28;20020;-84
2021/06/09 04:55:53;;;;;;;0.10;0.10;;;;;;;;;;5089172;28;20023;-83
2021/06/09 04:58:20;;;;;;;4.75;2.65;;;;;;;;;;5094626;28;20072;-83
2021/06/09 05:00:47;;;;;;;0.10;0.10;;;;;;;;;;5089786;28;20060;-83
2021/06/09 05:03:13;;;;;;;0.10;0.10;;;;;;;;;;5084571;28;20020;-85
2021/06/09 05:05:39;;;;;;;0.52;0.52;;;;;;;;;;5090822;28;20059;-85
2021/06/09 05:08:06;;;;;;;0.43;0.43;;;;;;;;;;5076183;28;20381;-85
2021/06/09 05:10:34;;;;;;;0.22;0.22;;;;;;;;;;5077840;28;20024;-82
2021/06/09 05:13:06;;;;;;;0.10;0.10;;;;;;;;;;5083397;28;20070;-85
2021/06/09 05:15:34;;;;;;;1.08;0.45;;;;;;;;;;5091425;28;20033;-83
2021/06/09 05:18:01;;;;;;;1.27;0.95;;;;;;;;;;5085579;28;20474;-83
2021/06/09 05:20:29;;;;;;;2.05;1.95;;;;;;;;;;5091587;28;20067;-82
2021/06/09 05:23:04;;;;;;;0.10;0.10;;;;;;;;;;5082631;28;20040;-82
2021/06/09 05:25:32;;;;;;;0.75;0.75;;;;;;;;;;5078242;28;20386;-83
2021/06/09 05:27:58;;;;;;;1.35;0.35;;;;;;;;;;5075664;28;20044;-83
2021/06/09 05:30:26;;;;;;;1.33;1.23;;;;;;;;;;5074964;28;20115;-81
2021/06/09 05:32:53;;;;;;;1.33;1.23;;;;;;;;;;5082725;28;20021;-82
2021/06/09 05:35:21;;;;;;;2.65;1.50;;;;;;;;;;5074830;28;20031;-81
2021/06/09 05:37:47;;;;;;;1.48;0.73;;;;;;;;;;5084674;28;20016;-81
2021/06/09 05:40:16;;;;;;;1.35;1.25;;;;;;;;;;5090807;28;20093;-82
2021/06/09 05:42:42;;;;;;;2.17;1.83;;;;;;;;;;5084070;28;20035;-83
2021/06/09 05:45:08;;;;;;;8.40;5.80;;;;;;;;;;5092236;28;20024;-83
2021/06/09 05:47:47;;;;;;;0.10;0.10;;;;;;;;;;5081701;28;20063;-84
2021/06/09 05:50:17;;;;;;;0.10;0.10;;;;;;;;;;5074324;28;20291;-84
2021/06/09 05:52:44;;;;;;;0.20;0.20;;;;;;;;;;5083619;28;20016;-84
2021/06/09 05:55:17;;;;;;;1.00;0.80;;;;;;;;;;5089396;28;20058;-84
2021/06/09 05:57:44;;;;;;;0.90;0.47;;;;;;;;;;5075966;28;20060;-84
2021/06/09 06:00:11;;;;;;;0.20;0.20;;;;;;;;;;5072516;28;20073;-83
2021/06/09 06:02:38;;;;;;;0.77;0.73;;;;;;;;;;5080570;28;20120;-85
2021/06/09 06:05:06;;;;;;;0.20;0.20;;;;;;;;;;5070885;28;20102;-84
2021/06/09 06:07:32;;;;;;;0.40;0.40;;;;;;;;;;5083233;28;20028;-84
2021/06/09 06:09:59;;;;;;;7.15;2.10;;;;;;;;;;5090978;28;20028;-85
2021/06/09 06:12:26;;;;;;;1.58;1.27;;;;;;;;;;5086293;28;20031;-82
2021/06/09 06:14:52;;;;;;;;;;;;;;;;;;5073178;28;20028;-83
2021/06/09 06:17:18;;;;;;;0.10;0.10;;;;;;;;;;5079872;28;20341;-82
2021/06/09 06:19:48;;;;;;;0.13;0.13;;;;;;;;;;5092739;28;20422;-83
2021/06/09 06:22:14;;;;;;;0.45;0.45;;;;;;;;;;5079326;28;20441;-84
2021/06/09 06:24:41;;;;;;;0.10;0.10;;;;;;;;;;5092812;28;20023;-85
2021/06/09 06:27:08;;;;;;;0.10;0.10;;;;;;;;;;5078689;28;20056;-83
2021/06/09 06:29:34;;;;;;;0.10;0.10;;;;;;;;;;5092692;28;20432;-83
2021/06/09 06:32:01;;;;;;;0.10;0.10;;;;;;;;;;5078713;28;20028;-83
2021/06/09 06:34:28;;;;;;;3.72;2.17;;;;;;;;;;5092413;28;20059;-84
2021/06/09 06:36:56;;;;;;;0.10;0.10;;;;;;;;;;5086196;28;20035;-84
2021/06/09 06:39:22;;;;;;;0.15;0.15;;;;;;;;;;5052215;28;20028;-83
2021/06/09 06:41:48;;;;;;;1.90;0.47;;;;;;;;;;5074345;28;20033;-82
2021/06/09 06:44:15;;;;;;;0.97;0.67;;;;;;;;;;5091507;28;20024;-81
2021/06/09 06:46:41;;;;;;;0.57;0.57;;;;;;;;;;5080556;28;20028;-81
2021/06/09 06:49:07;;;;;;;0.47;0.47;;;;;;;;;;5090136;28;20281;-84
2021/06/09 06:51:33;;;;;;;0.13;0.13;;;;;;;;;;5081634;28;20029;-85
2021/06/09 06:54:00;;;;;;;0.30;0.30;;;;;;;;;;5089181;28;20016;-85
2021/06/09 06:56:26;;;;;;;0.10;0.10;;;;;;;;;;5082349;28;20020;-85
2021/06/09 06:58:52;;;;;;;0.10;0.10;;;;;;;;;;5075338;28;20032;-83
2021/06/09 07:01:23;;;;;;;0.10;0.10;;;;;;;;;;5076257;28;20036;-83
2021/06/09 07:03:49;;;;;;;3.63;2.15;;;;;;;;;;5076040;28;20325;-84
2021/06/09 07:06:16;;;;;;;0.75;0.75;;;;;;;;;;5077354;28;20062;-83
2021/06/09 07:08:42;;;;;;;0.30;0.30;;;;;;;;;;5075690;28;20495;-84
2021/06/09 07:11:11;;;;;;;0.88;0.75;;;;;;;;;;5075734;28;20064;-86
2021/06/09 07:13:37;;;;;;;2.00;1.05;;;;;;;;;;5084193;28;20032;-84
2021/06/09 07:16:05;;;;;;;0.77;0.73;;;;;;;;;;5083979;28;20084;-84
2021/06/09 07:18:31;;;;;;;0.03;0.03;;;;;;;;;;5078291;28;20073;-84
2021/06/09 07:20:58;;;;;;;1.88;0.43;;;;;;;;;;5076626;28;20486;-85
2021/06/09 07:23:24;;;;;;;0.32;0.32;;;;;;;;;;5082582;28;20024;-85
2021/06/09 07:25:51;;;;;;;1.35;0.57;;;;;;;;;;5083871;28;20395;-84
2021/06/09 07:28:18;;;;;;;0.85;0.85;;;;;;;;;;5089790;28;20096;-83
2021/06/09 07:30:44;;;;;;;3.63;0.85;;;;;;;;;;5088049;28;20428;-84
2021/06/09 07:33:11;;;;;;;0.20;0.20;;;;;;;;;;5072379;28;20032;-85
2021/06/09 07:35:37;;;;;;;0.10;0.10;;;;;;;;;;5074471;28;20025;-83
2021/06/09 07:38:05;;;;;;;0.20;0.20;;;;;;;;;;5081008;28;20024;-83
2021/06/09 07:40:34;;;;;;;0.10;0.10;;;;;;;;;;5086027;28;20384;-83
2021/06/09 07:43:11;;;;;;;0.17;0.17;;;;;;;;;;5080135;28;20467;-85
2021/06/09 07:45:38;;;;;;;0.10;0.10;;;;;;;;;;5073221;28;20024;-83
2021/06/09 07:48:04;;;;;;;0.10;0.10;;;;;;;;;;5080914;28;20028;-83
2021/06/09 07:50:35;;;;;;;0.03;0.03;;;;;;;;;;5087193;28;20051;-84
2021/06/09 07:53:07;;;;;;;0.25;0.20;;;;;;;;;;5082317;28;20051;-84
2021/06/09 07:55:34;;;;;;;0.22;0.22;;;;;;;;;;5089120;28;20024;-82
2021/06/09 07:58:01;;;;;;;0.10;0.10;;;;;;;;;;5082230;28;20056;-84
2021/06/09 08:00:27;;;;;;;;;;;;;;;;;;5088109;28;20043;-86
2021/06/09 08:02:54;;;;;;;0.08;0.08;;;;;;;;;;5082283;28;20274;-84
2021/06/09 08:05:20;;;;;;;0.00;0.00;;;;;;;;;;5087375;28;20024;-86
2021/06/09 08:07:47;;;;;;;0.10;0.10;;;;;;;;;;5084758;28;20020;-84
2021/06/09 08:10:13;;;;;;;0.00;0.00;;;;;;;;;;5093169;28;20016;-83
2021/06/09 08:12:39;;;;;;;0.10;0.10;;;;;;;;;;5084357;28;20289;-83
2021/06/09 08:15:07;;;;;;;0.10;0.10;;;;;;;;;;5074590;28;20029;-83
2021/06/09 08:17:33;;;;;;;0.10;0.10;;;;;;;;;;5084573;28;20070;-84
2021/06/09 08:20:00;;;;;;;0.57;0.57;;;;;;;;;;5093678;28;20032;-83
2021/06/09 08:22:26;;;;;;;0.10;0.10;;;;;;;;;;5082353;28;20016;-84
2021/06/09 08:24:52;;;;;;;0.03;0.03;;;;;;;;;;5093131;28;20625;-84
2021/06/09 08:27:18;;;;;;;0.30;0.30;;;;;;;;;;5084533;28;20021;-84
2021/06/09 08:29:44;;;;;;;0.10;0.10;;;;;;;;;;5074699;28;20028;-86
2021/06/09 08:32:10;;;;;;;0.00;0.00;;;;;;;;;;5081912;28;20411;-85
2021/06/09 08:34:36;;;;;;;0.10;0.10;;;;;;;;;;5093423;28;20024;-84
2021/06/09 08:37:02;;;;;;;0.10;0.10;;;;;;;;;;5081137;28;20037;-84
2021/06/09 08:39:28;;;;;;;0.10;0.10;;;;;;;;;;5095075;28;20020;-84
2021/06/09 08:41:56;;;;;;;0.10;0.10;;;;;;;;;;5087758;28;20034;-84
2021/06/09 08:44:22;;;;;;;0.10;0.10;;;;;;;;;;5069562;28;20036;-83
2021/06/09 08:46:49;;;;;;;;;;;;;;;;;;5081798;28;20115;-84
2021/06/09 08:49:16;;;;;;;0.70;0.25;;;;;;;;;;5073668;28;19917;-83
2021/06/09 08:51:42;;;;;;;0.10;0.10;;;;;;;;;;5078553;28;20045;-85
2021/06/09 08:54:09;;;;;;;0.10;0.10;;;;;;;;;;5084459;28;20029;-83
2021/06/09 08:56:38;;;;;;;0.10;0.10;;;;;;;;;;5074277;28;20478;-85
2021/06/09 08:59:05;;;;;;;0.75;0.52;;;;;;;;;;5064849;28;20025;-83
2021/06/09 09:01:33;;;;;;;0.20;0.20;;;;;;;;;;5072812;28;20081;-85
2021/06/09 09:03:59;;;;;;;0.20;0.20;;;;;;;;;;5090075;28;20063;-83
2021/06/09 09:06:25;;;;;;;0.65;0.65;;;;;;;;;;5087453;28;20035;-84
2021/06/09 09:08:53;;;;;;;0.37;0.37;;;;;;;;;;5076793;28;20028;-84
2021/06/09 09:11:20;;;;;;;0.10;0.10;;;;;;;;;;5079137;28;20390;-84
2021/06/09 09:13:46;;;;;;;0.10;0.10;;;;;;;;;;5089127;28;20024;-84
2021/06/09 09:16:12;;;;;;;0.30;0.30;;;;;;;;;;5081888;28;20174;-85
2021/06/09 09:18:40;;;;;;;0.10;0.10;;;;;;;;;;5087459;28;20028;-84
2021/06/09 09:21:06;;;;;;;0.10;0.10;;;;;;;;;;5087237;28;20674;-83
2021/06/09 09:23:33;;;;;;;0.10;0.10;;;;;;;;;;5087496;28;20020;-85
2021/06/09 09:26:00;;;;;;;0.10;0.10;;;;;;;;;;5086672;28;20456;-84
2021/06/09 09:28:29;;;;;;;;;;;;;;;;;;5081631;28;20031;-83
2021/06/09 09:31:05;;;;;;;8.27;2.60;;;;;;;;;;5075932;28;19912;-83
2021/06/09 09:33:32;;;;;;;0.25;0.25;;;;;;;;;;5078424;28;20047;-83
2021/06/09 09:35:58;;;;;;;0.30;0.30;;;;;;;;;;5079413;28;20609;-85
2021/06/09 09:38:31;;;;;;;0.00;0.00;;;;;;;;;;5084908;28;20390;-85
2021/06/09 09:41:12;;;;;;;1.65;1.30;;;;;;;;;;5087186;28;20056;-83
2021/06/09 09:43:44;;;;;;;0.65;0.55;;;;;;;;;;5079343;28;20592;-84
2021/06/09 09:46:12;;;;;;;0.63;0.63;;;;;;;;;;5079007;28;20039;-83
2021/06/09 09:48:40;;;;;;;0.47;0.47;;;;;;;;;;5087333;28;20020;-82
2021/06/09 09:51:07;;;;;;;0.55;0.55;;;;;;;;;;5085891;28;20130;-83
2021/06/09 09:53:34;;;;;;;1.45;0.95;;;;;;;;;;5084798;28;20020;-83
2021/06/09 09:56:16;;;;;;;0.68;0.45;;;;;;;;;;5086606;28;20036;-83
2021/06/09 09:59:05;;;;;;;0.10;0.10;;;;;;;;;;5085787;28;20046;-83
2021/06/09 10:01:32;;;;;;;0.10;0.10;;;;;;;;;;5080713;28;20041;-83
2021/06/09 10:04:00;;;;;;;0.10;0.10;;;;;;;;;;5086626;28;20013;-85
2021/06/09 10:06:26;;;;;;;0.22;0.22;;;;;;;;;;5082544;28;20094;-82
2021/06/09 10:08:52;;;;;;;0.20;0.20;;;;;;;;;;5069291;28;20025;-83
2021/06/09 10:11:18;;;;;;;;;;;;;;;;;;5078771;28;20034;-83
2021/06/09 10:13:45;;;;;;;0.98;0.73;;;;;;;;;;5077044;28;19995;-87
2021/06/09 10:16:25;;;;;;;0.10;0.10;;;;;;;;;;5077479;28;20039;-84
2021/06/09 10:19:11;;;;;;;0.10;0.10;;;;;;;;;;5087991;28;20020;-83
2021/06/09 10:21:43;;;;;;;0.93;0.55;;;;;;;;;;5082655;28;20072;-83
2021/06/09 10:24:09;;;;;;;0.22;0.22;;;;;;;;;;5091311;28;20020;-84
2021/06/09 10:26:35;;;;;;;;;;;;;;;;;;5089059;28;20721;-83
2021/06/09 10:29:06;;;;;;;0.10;0.10;;;;;;;;;;5073810;28;19905;-84
2021/06/09 10:31:34;;;;;;;0.40;0.40;;;;;;;;;;5078817;28;20035;-84
2021/06/09 10:34:01;;;;;;;0.00;0.00;;;;;;;;;;5074423;28;20036;-83
2021/06/09 10:36:27;;;;;;;0.10;0.10;;;;;;;;;;5077142;28;20086;-86
2021/06/09 10:38:54;;;;;;;1.90;1.45;;;;;;;;;;5072290;28;20505;-83
2021/06/09 10:41:23;;;;;;;0.10;0.10;;;;;;;;;;5074210;28;20079;-86
2021/06/09 10:43:51;;;;;;;0.22;0.22;;;;;;;;;;5086929;28;20022;-83
2021/06/09 10:46:25;;;;;;;0.20;0.20;;;;;;;;;;5085219;28;20497;-84
2021/06/09 10:48:54;;;;;;;0.10;0.10;;;;;;;;;;5088043;28;20023;-83
2021/06/09 10:51:20;;;;;;;0.20;0.20;;;;;;;;;;5085173;28;20547;-85
2021/06/09 10:53:46;;;;;;;0.65;0.63;;;;;;;;;;5090836;28;20032;-84
2021/06/09 10:56:16;;;;;;;0.10;0.10;;;;;;;;;;5085518;28;20032;-83
2021/06/09 10:58:43;;;;;;;0.30;0.30;;;;;;;;;;5086575;28;20073;-84
2021/06/09 11:01:09;;;;;;;0.20;0.20;;;;;;;;;;5086023;28;20036;-84
2021/06/09 11:03:36;;;;;;;0.10;0.10;;;;;;;;;;5085524;28;20020;-83
2021/06/09 11:06:03;;;;;;;0.10;0.10;;;;;;;;;;5086722;28;20609;-84
2021/06/09 11:08:30;;;;;;;0.13;0.13;;;;;;;;;;5083342;28;20031;-83
2021/06/09 11:10:56;;;;;;;0.10;0.10;;;;;;;;;;5087526;28;20394;-84
2021/06/09 11:13:32;;;;;;;0.10;0.10;;;;;;;;;;5083489;28;20021;-85
2021/06/09 11:16:12;;;;;;;0.10;0.10;;;;;;;;;;5085928;28;20024;-85
2021/06/09 11:18:40;;;;;;;0.10;0.10;;;;;;;;;;5085818;28;20144;-83
2021/06/09 11:21:07;;;;;;;0.10;0.10;;;;;;;;;;5085861;28;20032;-84
2021/06/09 11:23:35;;;;;;;0.10;0.10;;;;;;;;;;5083610;28;20020;-85
2021/06/09 11:26:04;;;;;;;0.10;0.10;;;;;;;;;;5086674;28;20024;-84
2021/06/09 11:28:32;;;;;;;0.10;0.10;;;;;;;;;;5084438;28;20016;-84
2021/06/09 11:30:59;;;;;;;0.10;0.10;;;;;;;;;;5086903;28;20034;-83
2021/06/09 11:33:51;;;;;;;0.10;0.10;;;;;;;;;;5083812;28;20059;-84
2021/06/09 11:36:20;;;;;;;0.15;0.15;;;;;;;;;;5082358;28;20043;-84
2021/06/09 11:38:46;;;;;;;3.50;3.17;;;;;;;;;;5086737;28;20021;-84
2021/06/09 11:41:20;;;;;;;0.08;0.08;;;;;;;;;;5084121;28;20046;-85
2021/06/09 11:43:50;;;;;;;0.28;0.28;;;;;;;;;;5075894;28;20104;-84
2021/06/09 11:46:30;;;;;;;0.00;0.00;;;;;;;;;;5076423;28;20403;-83
2021/06/09 11:48:58;;;;;;;0.10;0.10;;;;;;;;;;5087655;28;20040;-84
2021/06/09 11:51:27;;;;;;;0.10;0.10;;;;;;;;;;5081934;28;20162;-84
2021/06/09 11:53:56;;;;;;;0.10;0.10;;;;;;;;;;5086174;28;20389;-87
2021/06/09 11:56:28;;;;;;;1.10;0.77;;;;;;;;;;5083280;28;20025;-84
2021/06/09 11:59:02;;;;;;;11.52;2.50;;;;;;;;;;5087294;28;20028;-85
2021/06/09 12:01:44;;;;;;;4.32;2.47;;;;;;;;;;5082524;28;20055;-85
2021/06/09 12:04:15;;;;;;;9.75;1.52;;;;;;;;;;5090061;28;20043;-84
2021/06/09 12:06:42;;;;;;;11.13;4.50;;;;;;;;;;5079623;28;20024;-85
2021/06/09 12:09:08;;;;;;;2.10;1.35;;;;;;;;;;5085532;28;20032;-83
2021/06/09 12:11:42;;;;;;;7.07;3.60;;;;;;;;;;5080207;28;20048;-84
2021/06/09 12:14:22;;;;;;;3.47;1.52;;;;;;;;;;5088042;28;20030;-84
2021/06/09 12:16:49;;;;;;;1.77;1.13;;;;;;;;;;5079701;28;20083;-84
2021/06/09 12:19:22;;;;;;;7.28;3.72;;;;;;;;;;5090171;28;20056;-86
2021/06/09 12:21:48;;;;;;;0.63;0.63;;;;;;;;;;5079345;28;20602;-82
2021/06/09 12:24:16;;;;;;;4.13;2.50;;;;;;;;;;5088861;28;20130;-83
2021/06/09 12:27:02;;;;;;;15.20;4.57;;;;;;;;;;5078996;28;20033;-84
2021/06/09 12:29:30;;;;;;;5.18;2.92;;;;;;;;;;5050462;28;20025;-83
2021/06/09 12:31:56;;;;;;;2.22;1.45;;;;;;;;;;5072514;28;20052;-84
2021/06/09 12:34:24;;;;;;;1.85;1.15;;;;;;;;;;5090581;28;20105;-84
2021/06/09 12:36:52;;;;;;;7.32;2.22;;;;;;;;;;5085143;28;20024;-83
2021/06/09 12:39:18;;;;;;;3.10;2.22;;;;;;;;;;5070956;28;20475;-83
2021/06/09 12:41:45;;;;;;;4.27;2.10;;;;;;;;;;5075854;28;20460;-85
2021/06/09 12:44:12;;;;;;;3.58;2.95;;;;;;;;;;5089437;28;20265;-83
2021/06/09 12:46:38;;;;;;;;;;;;;;;;;;5081279;28;20078;-84
2021/06/09 12:49:04;;;;;;;4.97;3.30;;;;;;;;;;5088141;28;19908;-85
2021/06/09 12:51:30;;;;;;;2.28;2.08;;;;;;;;;;5081999;28;20119;-83
2021/06/09 12:53:56;;;;;;;5.18;2.10;;;;;;;;;;5089769;28;20052;-84
2021/06/09 12:56:22;;;;;;;10.48;3.30;;;;;;;;;;5086603;28;20037;-87
2021/06/09 12:58:50;;;;;;;3.20;2.65;;;;;;;;;;5088451;28;20024;-84
2021/06/09 13:01:16;;;;;;;4.88;3.05;;;;;;;;;;5087522;28;20056;-84
2021/06/09 13:03:46;;;;;;;5.93;3.30;;;;;;;;;;5089032;28;20158;-85
2021/06/09 13:06:15;;;;;;;0.98;0.95;;;;;;;;;;5086504;28;20044;-84
2021/06/09 13:08:45;;;;;;;3.90;2.80;;;;;;;;;;5088762;28;20024;-85
2021/06/09 13:11:20;;;;;;;2.10;1.13;;;;;;;;;;5087865;28;20024;-84
2021/06/09 13:13:47;;;;;;;2.03;1.50;;;;;;;;;;5089207;28;20024;-86
2021/06/09 13:16:15;;;;;;;5.15;1.80;;;;;;;;;;5087663;28;20032;-85
2021/06/09 13:18:49;;;;;;;2.15;1.58;;;;;;;;;;5088332;28;20031;-86
2021/06/09 13:21:18;;;;;;;4.22;2.08;;;;;;;;;;5086877;28;20036;-84
2021/06/09 13:23:44;;;;;;;5.53;3.33;;;;;;;;;;5077418;28;20024;-84
2021/06/09 13:26:11;;;;;;;2.05;1.30;;;;;;;;;;5078668;28;20032;-83
2021/06/09 13:28:37;;;;;;;;;;;;;;;;;;5078880;28;20074;-87
2021/06/09 13:31:03;;;;;;;1.52;1.10;;;;;;;;;;5085505;28;19908;-87
2021/06/09 13:33:30;;;;;;;5.90;2.00;;;;;;;;;;5083236;28;20107;-90
2021/06/09 13:35:56;;;;;;;2.45;1.23;;;;;;;;;;5079143;28;20028;-83
2021/06/09 13:38:22;;;;;;;6.13;2.25;;;;;;;;;;5085678;28;20032;-86
2021/06/09 13:40:48;;;;;;;1.77;1.58;;;;;;;;;;5088849;28;20139;-84
2021/06/09 13:43:15;;;;;;;4.32;3.28;;;;;;;;;;5085082;28;20458;-85
2021/06/09 13:45:46;;;;;;;2.33;2.03;;;;;;;;;;5072606;28;20033;-84
2021/06/09 13:48:20;;;;;;;13.52;4.15;;;;;;;;;;5083970;28;20035;-84
2021/06/09 13:50:57;;;;;;;1.55;1.45;;;;;;;;;;5086383;28;20477;-85
2021/06/09 13:53:24;;;;;;;3.80;1.95;;;;;;;;;;5093489;28;20112;-85
2021/06/09 13:55:50;;;;;;;1.77;1.45;;;;;;;;;;5088267;28;20075;-84
2021/06/09 13:58:23;;;;;;;2.23;1.87;;;;;;;;;;5082378;28;20475;-85
2021/06/09 14:00:50;;;;;;;4.10;2.20;;;;;;;;;;5079718;28;20036;-83
2021/06/09 14:03:21;;;;;;;2.03;1.42;;;;;;;;;;5083481;28;20027;-85
2021/06/09 14:05:48;;;;;;;2.38;1.45;;;;;;;;;;5089925;28;20024;-85
2021/06/09 14:08:14;;;;;;;0.93;0.90;;;;;;;;;;5082535;28;20108;-83
2021/06/09 14:10:41;;;;;;;2.27;1.57;;;;;;;;;;5076905;28;20547;-84
2021/06/09 14:13:21;;;;;;;0.32;0.32;;;;;;;;;;5073004;28;20021;-84
2021/06/09 14:15:54;;;;;;;0.32;0.32;;;;;;;;;;5076848;28;20024;-85
2021/06/09 14:18:20;;;;;;;0.20;0.20;;;;;;;;;;5076374;28;20012;-86
2021/06/09 14:20:47;;;;;;;4.35;1.42;;;;;;;;;;5079619;28;20032;-86
2021/06/09 14:23:20;;;;;;;3.20;1.30;;;;;;;;;;5080600;28;20043;-82
2021/06/09 14:25:47;;;;;;;0.40;0.40;;;;;;;;;;5077577;28;20028;-82
2021/06/09 14:28:17;;;;;;;1.90;1.38;;;;;;;;;;5081932;28;20118;-83
2021/06/09 14:30:46;;;;;;;0.10;0.10;;;;;;;;;;5081101;28;20511;-84
2021/06/09 14:33:27;;;;;;;3.88;3.50;;;;;;;;;;5082576;28;20032;-86
2021/06/09 14:36:04;;;;;;;1.40;1.02;;;;;;;;;;5087245;28;20478;-81
2021/06/09 14:38:30;;;;;;;;;;;;;;;;;;5071530;28;20024;-82
2021/06/09 14:40:58;;;;;;;3.22;0.73;;;;;;;;;;5076142;28;19924;-85
2021/06/09 14:43:25;;;;;;;3.67;2.72;;;;;;;;;;5085777;28;20105;-81
2021/06/09 14:45:51;;;;;;;2.53;1.52;;;;;;;;;;5082658;28;20215;-81
2021/06/09 14:48:46;;;;;;;1.85;1.70;;;;;;;;;;5065779;28;20017;-81
2021/06/09 14:51:18;;;;;;;2.35;2.05;;;;;;;;;;5068331;28;20051;-82
2021/06/09 14:53:45;;;;;;;3.90;1.33;;;;;;;;;;5075538;28;20059;-82
2021/06/09 14:56:11;;;;;;;;;;;;;;;;;;5077654;28;21030;-80